PRIVATE WETTERSTATION BILLIGHEIM-ALLFELD                       ZURCK
Wetterdaten: Donnerstag, 27.07.2017
Datum Zeit Temp. A. Temp. A. min Temp. A. max Feuchte A. Luftdruck Regen Wind Richtung Richtung Sonnenschein ET Solar Taupunkt Windchill Windben Empfang
27.07.2017 00:00 14,8 C 14,8 C 14,9 C 86 % 1010,5 hPa 0,0 l/m 0,0 km/h (0 Bft) N 0 0 min 0,000 mm 0 W/m 12,5 C 14,8 C 0,0 km/h (0 Bft) 100 %
27.07.2017 00:10 14,7 C 14,6 C 14,8 C 86 % 1010,5 hPa 0,0 l/m 0,0 km/h (0 Bft) N 0 0 min 0,000 mm 0 W/m 12,4 C 14,7 C 0,0 km/h (0 Bft) 100 %
27.07.2017 00:20 14,4 C 14,4 C 14,7 C 87 % 1010,6 hPa 0,0 l/m 0,0 km/h (0 Bft) N 0 0 min 0,000 mm 0 W/m 12,3 C 14,4 C 0,0 km/h (0 Bft) 100 %
27.07.2017 00:30 14,2 C 14,2 C 14,4 C 87 % 1010,6 hPa 0,0 l/m 0,0 km/h (0 Bft) N 0 0 min 0,000 mm 0 W/m 12,1 C 14,2 C 0,0 km/h (0 Bft) 100 %
27.07.2017 00:40 14,2 C 14,2 C 14,2 C 88 % 1010,6 hPa 0,0 l/m 0,0 km/h (0 Bft) N 0 0 min 0,000 mm 0 W/m 12,2 C 14,2 C 0,0 km/h (0 Bft) 100 %
27.07.2017 00:50 14,1 C 14,1 C 14,2 C 88 % 1010,6 hPa 0,0 l/m 0,0 km/h (0 Bft) SW 225 0 min 0,000 mm 0 W/m 12,1 C 14,1 C 1,6 km/h (1 Bft) 100 %
27.07.2017 01:00 14,1 C 14,1 C 14,1 C 88 % 1010,6 hPa 0,0 l/m 0,0 km/h (0 Bft) N 0 0 min 0,000 mm 0 W/m 12,1 C 14,1 C 0,0 km/h (0 Bft) 100 %
27.07.2017 01:10 13,9 C 13,9 C 14,1 C 87 % 1010,6 hPa 0,0 l/m 0,0 km/h (0 Bft) N 0 0 min 0,000 mm 0 W/m 11,8 C 13,9 C 0,0 km/h (0 Bft) 100 %
27.07.2017 01:20 13,7 C 13,7 C 13,9 C 87 % 1010,6 hPa 0,0 l/m 0,0 km/h (0 Bft) N 0 0 min 0,000 mm 0 W/m 11,6 C 13,7 C 0,0 km/h (0 Bft) 100 %
27.07.2017 01:30 13,3 C 13,3 C 13,7 C 88 % 1010,5 hPa 0,0 l/m 0,0 km/h (0 Bft) N 0 0 min 0,000 mm 0 W/m 11,4 C 13,3 C 0,0 km/h (0 Bft) 100 %
27.07.2017 01:40 13,0 C 13,0 C 13,3 C 88 % 1010,4 hPa 0,0 l/m 0,0 km/h (0 Bft) N 0 0 min 0,000 mm 0 W/m 11,1 C 13,0 C 0,0 km/h (0 Bft) 100 %
27.07.2017 01:50 12,8 C 12,8 C 13,1 C 88 % 1010,3 hPa 0,0 l/m 0,0 km/h (0 Bft) N 0 0 min 0,000 mm 0 W/m 10,9 C 12,8 C 0,0 km/h (0 Bft) 100 %
27.07.2017 02:00 12,5 C 12,5 C 12,8 C 88 % 1010,3 hPa 0,0 l/m 0,0 km/h (0 Bft) N 0 0 min 0,000 mm 0 W/m 10,6 C 12,5 C 0,0 km/h (0 Bft) 100 %
27.07.2017 02:10 12,3 C 12,3 C 12,5 C 89 % 1010,3 hPa 0,0 l/m 0,0 km/h (0 Bft) N 0 0 min 0,000 mm 0 W/m 10,5 C 12,3 C 0,0 km/h (0 Bft) 100 %
27.07.2017 02:20 12,1 C 12,1 C 12,3 C 89 % 1010,3 hPa 0,0 l/m 0,0 km/h (0 Bft) N 0 0 min 0,000 mm 0 W/m 10,3 C 12,1 C 0,0 km/h (0 Bft) 100 %
27.07.2017 02:30 12,0 C 12,0 C 12,1 C 89 % 1010,2 hPa 0,0 l/m 0,0 km/h (0 Bft) N 0 0 min 0,000 mm 0 W/m 10,2 C 12,0 C 0,0 km/h (0 Bft) 100 %
27.07.2017 02:40 11,9 C 11,9 C 12,0 C 89 % 1010,1 hPa 0,0 l/m 0,0 km/h (0 Bft) N 0 0 min 0,000 mm 0 W/m 10,1 C 11,9 C 0,0 km/h (0 Bft) 100 %
27.07.2017 02:50 11,9 C 11,9 C 11,9 C 89 % 1010,2 hPa 0,0 l/m 0,0 km/h (0 Bft) N 0 0 min 0,000 mm 0 W/m 10,1 C 11,9 C 0,0 km/h (0 Bft) 100 %
27.07.2017 03:00 11,8 C 11,8 C 11,9 C 89 % 1010,1 hPa 0,0 l/m 0,0 km/h (0 Bft) N 0 0 min 0,000 mm 0 W/m 10,0 C 11,8 C 0,0 km/h (0 Bft) 100 %
27.07.2017 03:10 11,7 C 11,7 C 11,8 C 89 % 1010,0 hPa 0,0 l/m 0,0 km/h (0 Bft) N 0 0 min 0,000 mm 0 W/m 9,9 C 11,7 C 0,0 km/h (0 Bft) 100 %
27.07.2017 03:20 11,7 C 11,7 C 11,7 C 89 % 1009,9 hPa 0,0 l/m 0,0 km/h (0 Bft) N 0 0 min 0,000 mm 0 W/m 9,9 C 11,7 C 0,0 km/h (0 Bft) 100 %
27.07.2017 03:30 11,8 C 11,7 C 11,8 C 89 % 1009,9 hPa 0,0 l/m 0,0 km/h (0 Bft) N 0 0 min 0,000 mm 0 W/m 10,0 C 11,8 C 0,0 km/h (0 Bft) 100 %
27.07.2017 03:40 11,8 C 11,7 C 11,8 C 89 % 1009,8 hPa 0,0 l/m 0,0 km/h (0 Bft) N 0 0 min 0,000 mm 0 W/m 10,0 C 11,8 C 0,0 km/h (0 Bft) 100 %
27.07.2017 03:50 11,9 C 11,8 C 11,9 C 89 % 1009,8 hPa 0,0 l/m 0,0 km/h (0 Bft) SW 225 0 min 0,000 mm 0 W/m 10,1 C 11,9 C 1,6 km/h (1 Bft) 99 %
27.07.2017 04:00 12,3 C 11,9 C 12,3 C 89 % 1009,8 hPa 0,0 l/m 1,6 km/h (1 Bft) SW 225 0 min 0,000 mm 0 W/m 10,5 C 12,3 C 4,8 km/h (1 Bft) 100 %
27.07.2017 04:10 12,6 C 12,3 C 12,6 C 89 % 1009,8 hPa 0,0 l/m 0,0 km/h (0 Bft) SW 225 0 min 0,000 mm 0 W/m 10,8 C 12,6 C 4,8 km/h (1 Bft) 100 %
27.07.2017 04:20 12,8 C 12,6 C 12,8 C 89 % 1009,7 hPa 0,0 l/m 3,2 km/h (1 Bft) S-SW 202 0 min 0,000 mm 0 W/m 11,0 C 12,8 C 6,4 km/h (2 Bft) 100 %
27.07.2017 04:30 13,0 C 12,8 C 13,0 C 89 % 1009,5 hPa 0,0 l/m 3,2 km/h (1 Bft) S-SW 202 0 min 0,000 mm 0 W/m 11,2 C 13,0 C 6,4 km/h (2 Bft) 100 %
27.07.2017 04:40 13,1 C 13,0 C 13,1 C 89 % 1009,5 hPa 0,0 l/m 4,8 km/h (1 Bft) S 180 0 min 0,000 mm 0 W/m 11,3 C 13,1 C 6,4 km/h (2 Bft) 99 %
27.07.2017 04:50 13,1 C 13,1 C 13,1 C 89 % 1009,5 hPa 0,0 l/m 3,2 km/h (1 Bft) S-SO 157 0 min 0,000 mm 0 W/m 11,3 C 13,1 C 6,4 km/h (2 Bft) 100 %
27.07.2017 05:00 13,1 C 13,1 C 13,2 C 89 % 1009,4 hPa 0,0 l/m 3,2 km/h (1 Bft) S-SO 157 0 min 0,000 mm 0 W/m 11,3 C 13,1 C 8,0 km/h (2 Bft) 100 %
27.07.2017 05:10 13,2 C 13,1 C 13,2 C 89 % 1009,5 hPa 0,0 l/m 3,2 km/h (1 Bft) S-SO 157 0 min 0,000 mm 0 W/m 11,4 C 13,2 C 8,0 km/h (2 Bft) 100 %
27.07.2017 05:20 13,2 C 13,2 C 13,2 C 89 % 1009,4 hPa 0,0 l/m 4,8 km/h (1 Bft) S-SO 157 0 min 0,000 mm 0 W/m 11,4 C 13,2 C 8,0 km/h (2 Bft) 100 %
27.07.2017 05:30 13,2 C 13,2 C 13,2 C 89 % 1009,4 hPa 0,0 l/m 4,8 km/h (1 Bft) S-SO 157 0 min 0,000 mm 0 W/m 11,4 C 13,2 C 8,0 km/h (2 Bft) 100 %
27.07.2017 05:40 13,2 C 13,2 C 13,2 C 89 % 1009,4 hPa 0,0 l/m 4,8 km/h (1 Bft) S-SO 157 0 min 0,000 mm 0 W/m 11,4 C 13,2 C 8,0 km/h (2 Bft) 99 %
27.07.2017 05:50 13,2 C 13,2 C 13,3 C 89 % 1009,5 hPa 0,0 l/m 4,8 km/h (1 Bft) S-SO 157 0 min 0,000 mm 5 W/m 11,4 C 13,2 C 8,0 km/h (2 Bft) 90 %
27.07.2017 06:00 13,2 C 13,2 C 13,2 C 89 % 1009,4 hPa 0,0 l/m 4,8 km/h (1 Bft) S-SO 157 0 min 0,000 mm 0 W/m 11,4 C 13,2 C 9,7 km/h (2 Bft) 100 %
27.07.2017 06:10 13,2 C 13,1 C 13,2 C 89 % 1009,4 hPa 0,0 l/m 6,4 km/h (2 Bft) S-SO 157 0 min 0,000 mm 7 W/m 11,4 C 13,2 C 11,3 km/h (2 Bft) 100 %
27.07.2017 06:20 13,1 C 13,1 C 13,2 C 89 % 1009,4 hPa 0,2 l/m 6,4 km/h (2 Bft) S-SO 157 0 min 0,000 mm 11 W/m 11,3 C 13,1 C 11,3 km/h (2 Bft) 100 %
27.07.2017 06:30 13,1 C 13,1 C 13,1 C 89 % 1009,4 hPa 0,0 l/m 6,4 km/h (2 Bft) S-SO 157 0 min 0,000 mm 18 W/m 11,3 C 13,1 C 9,7 km/h (2 Bft) 100 %
27.07.2017 06:40 13,1 C 13,1 C 13,1 C 89 % 1009,6 hPa 0,0 l/m 6,4 km/h (2 Bft) S-SO 157 0 min 0,000 mm 19 W/m 11,3 C 13,1 C 11,3 km/h (2 Bft) 100 %
27.07.2017 06:50 13,1 C 13,1 C 13,1 C 89 % 1009,4 hPa 0,0 l/m 4,8 km/h (1 Bft) S-SO 157 0 min 0,000 mm 19 W/m 11,3 C 13,1 C 9,7 km/h (2 Bft) 100 %
27.07.2017 07:00 13,2 C 13,1 C 13,2 C 89 % 1009,6 hPa 0,0 l/m 6,4 km/h (2 Bft) S-SO 157 0 min 0,025 mm 23 W/m 11,4 C 13,2 C 11,3 km/h (2 Bft) 100 %
27.07.2017 07:10 13,2 C 13,2 C 13,2 C 89 % 1009,6 hPa 0,2 l/m 4,8 km/h (1 Bft) S-SO 157 0 min 0,000 mm 16 W/m 11,4 C 13,2 C 11,3 km/h (2 Bft) 100 %
27.07.2017 07:20 13,3 C 13,2 C 13,3 C 89 % 1009,5 hPa 0,2 l/m 6,4 km/h (2 Bft) S-SO 157 0 min 0,000 mm 23 W/m 11,5 C 13,3 C 11,3 km/h (2 Bft) 100 %
27.07.2017 07:30 13,4 C 13,3 C 13,4 C 89 % 1009,5 hPa 0,2 l/m 4,8 km/h (1 Bft) S-SO 157 0 min 0,000 mm 21 W/m 11,6 C 13,4 C 9,7 km/h (2 Bft) 100 %
27.07.2017 07:40 13,4 C 13,4 C 13,4 C 89 % 1009,6 hPa 0,2 l/m 4,8 km/h (1 Bft) S-SO 157 0 min 0,000 mm 18 W/m 11,6 C 13,4 C 11,3 km/h (2 Bft) 100 %
27.07.2017 07:50 13,6 C 13,4 C 13,6 C 89 % 1009,6 hPa 0,0 l/m 4,8 km/h (1 Bft) S-SO 157 0 min 0,000 mm 51 W/m 11,8 C 13,6 C 8,0 km/h (2 Bft) 100 %
27.07.2017 08:00 13,7 C 13,6 C 13,7 C 90 % 1009,8 hPa 0,6 l/m 4,8 km/h (1 Bft) S-SO 157 0 min 0,025 mm 49 W/m 12,1 C 13,7 C 8,0 km/h (2 Bft) 100 %
27.07.2017 08:10 13,7 C 13,7 C 13,7 C 90 % 1009,8 hPa 0,6 l/m 3,2 km/h (1 Bft) S 180 0 min 0,000 mm 33 W/m 12,1 C 13,7 C 6,4 km/h (2 Bft) 100 %
27.07.2017 08:20 13,8 C 13,7 C 13,8 C 90 % 1009,8 hPa 0,4 l/m 6,4 km/h (2 Bft) S-SO 157 0 min 0,000 mm 67 W/m 12,2 C 13,8 C 9,7 km/h (2 Bft) 100 %
27.07.2017 08:30 13,9 C 13,8 C 13,9 C 90 % 1009,8 hPa 0,4 l/m 4,8 km/h (1 Bft) S 180 0 min 0,000 mm 86 W/m 12,3 C 13,9 C 9,7 km/h (2 Bft) 100 %
27.07.2017 08:40 14,1 C 13,9 C 14,1 C 90 % 1009,8 hPa 0,0 l/m 6,4 km/h (2 Bft) S-SO 157 0 min 0,000 mm 88 W/m 12,5 C 14,1 C 14,5 km/h (3 Bft) 100 %
27.07.2017 08:50 14,1 C 14,1 C 14,1 C 90 % 1009,8 hPa 0,4 l/m 8,0 km/h (2 Bft) S-SO 157 0 min 0,000 mm 88 W/m 12,5 C 13,2 C 14,5 km/h (3 Bft) 100 %
27.07.2017 09:00 14,2 C 14,1 C 14,2 C 90 % 1009,9 hPa 0,4 l/m 6,4 km/h (2 Bft) S-SO 157 0 min 0,051 mm 77 W/m 12,6 C 14,2 C 14,5 km/h (3 Bft) 100 %
27.07.2017 09:10 14,3 C 14,2 C 14,3 C 90 % 1009,9 hPa 0,0 l/m 6,4 km/h (2 Bft) S-SO 157 0 min 0,000 mm 120 W/m 12,7 C 14,3 C 9,7 km/h (2 Bft) 100 %
27.07.2017 09:20 14,4 C 14,3 C 14,4 C 90 % 1010,0 hPa 0,2 l/m 4,8 km/h (1 Bft) S 180 0 min 0,000 mm 105 W/m 12,8 C 14,4 C 14,5 km/h (3 Bft) 100 %
27.07.2017 09:30 14,6 C 14,4 C 14,6 C 90 % 1010,0 hPa 0,2 l/m 4,8 km/h (1 Bft) S 180 0 min 0,000 mm 88 W/m 13,0 C 14,6 C 11,3 km/h (2 Bft) 100 %
27.07.2017 09:40 14,7 C 14,6 C 14,7 C 90 % 1010,1 hPa 0,0 l/m 4,8 km/h (1 Bft) S-SW 202 0 min 0,000 mm 114 W/m 13,1 C 14,7 C 9,7 km/h (2 Bft) 100 %
27.07.2017 09:50 14,8 C 14,7 C 14,8 C 90 % 1009,9 hPa 0,0 l/m 4,8 km/h (1 Bft) S-SW 202 0 min 0,000 mm 111 W/m 13,2 C 14,8 C 9,7 km/h (2 Bft) 100 %
27.07.2017 10:00 14,8 C 14,8 C 14,8 C 90 % 1009,9 hPa 0,0 l/m 4,8 km/h (1 Bft) S 180 0 min 0,051 mm 132 W/m 13,2 C 14,8 C 9,7 km/h (2 Bft) 100 %
27.07.2017 10:10 15,0 C 14,8 C 15,0 C 90 % 1009,8 hPa 0,0 l/m 4,8 km/h (1 Bft) S 180 0 min 0,000 mm 132 W/m 13,4 C 15,0 C 11,3 km/h (2 Bft) 99 %
27.07.2017 10:20 15,1 C 15,0 C 15,1 C 90 % 1009,8 hPa 0,0 l/m 6,4 km/h (2 Bft) S-SO 157 0 min 0,000 mm 142 W/m 13,5 C 15,1 C 16,1 km/h (3 Bft) 98 %
27.07.2017 10:30 15,1 C 15,1 C 15,1 C 90 % 1009,8 hPa 0,0 l/m 4,8 km/h (1 Bft) S-SO 157 0 min 0,000 mm 128 W/m 13,5 C 15,1 C 9,7 km/h (2 Bft) 99 %
27.07.2017 10:40 15,1 C 15,1 C 15,1 C 90 % 1010,0 hPa 0,0 l/m 4,8 km/h (1 Bft) S 180 0 min 0,000 mm 111 W/m 13,5 C 15,1 C 9,7 km/h (2 Bft) 99 %
27.07.2017 10:50 15,3 C 15,1 C 15,3 C 90 % 1010,0 hPa 0,0 l/m 4,8 km/h (1 Bft) S-SW 202 10 min 0,000 mm 153 W/m 13,7 C 15,3 C 9,7 km/h (2 Bft) 97 %
27.07.2017 11:00 15,5 C 15,3 C 15,5 C 90 % 1010,0 hPa 0,0 l/m 4,8 km/h (1 Bft) S 180 0 min 0,051 mm 142 W/m 13,9 C 15,5 C 9,7 km/h (2 Bft) 99 %
27.07.2017 11:10 15,8 C 15,5 C 15,8 C 90 % 1010,0 hPa 0,4 l/m 4,8 km/h (1 Bft) S 180 10 min 0,000 mm 186 W/m 14,2 C 15,8 C 8,0 km/h (2 Bft) 98 %
27.07.2017 11:20 15,9 C 15,8 C 15,9 C 90 % 1009,9 hPa 0,0 l/m 4,8 km/h (1 Bft) S 180 10 min 0,000 mm 155 W/m 14,3 C 15,9 C 9,7 km/h (2 Bft) 97 %
27.07.2017 11:30 16,1 C 15,9 C 16,1 C 90 % 1009,9 hPa 0,0 l/m 4,8 km/h (1 Bft) S 180 0 min 0,000 mm 137 W/m 14,5 C 16,1 C 11,3 km/h (2 Bft) 97 %
27.07.2017 11:40 16,2 C 16,1 C 16,2 C 90 % 1009,7 hPa 0,0 l/m 6,4 km/h (2 Bft) S-SW 202 10 min 0,000 mm 162 W/m 14,6 C 16,2 C 14,5 km/h (3 Bft) 98 %
27.07.2017 11:50 16,4 C 16,2 C 16,4 C 90 % 1009,7 hPa 0,0 l/m 4,8 km/h (1 Bft) S 180 10 min 0,000 mm 162 W/m 14,8 C 16,4 C 9,7 km/h (2 Bft) 98 %
27.07.2017 12:00 16,6 C 16,4 C 16,6 C 90 % 1009,5 hPa 0,0 l/m 4,8 km/h (1 Bft) S-SW 202 10 min 0,076 mm 155 W/m 15,0 C 16,6 C 11,3 km/h (2 Bft) 97 %
27.07.2017 12:10 16,8 C 16,6 C 16,8 C 90 % 1009,5 hPa 0,2 l/m 6,4 km/h (2 Bft) S-SW 202 10 min 0,000 mm 229 W/m 15,1 C 16,8 C 11,3 km/h (2 Bft) 98 %
27.07.2017 12:20 17,2 C 16,8 C 17,2 C 90 % 1009,6 hPa 0,0 l/m 6,4 km/h (2 Bft) SW 225 10 min 0,000 mm 239 W/m 15,5 C 17,2 C 14,5 km/h (3 Bft) 97 %
27.07.2017 12:30 17,4 C 17,2 C 17,4 C 90 % 1009,4 hPa 0,0 l/m 8,0 km/h (2 Bft) SW 225 10 min 0,000 mm 267 W/m 15,7 C 16,6 C 17,7 km/h (3 Bft) 97 %
27.07.2017 12:40 17,5 C 17,4 C 17,5 C 90 % 1009,2 hPa 0,0 l/m 8,0 km/h (2 Bft) SW 225 10 min 0,000 mm 371 W/m 15,8 C 16,7 C 19,3 km/h (3 Bft) 98 %
27.07.2017 12:50 17,7 C 17,5 C 17,7 C 90 % 1009,3 hPa 0,0 l/m 8,0 km/h (2 Bft) SW 225 10 min 0,000 mm 422 W/m 16,0 C 16,9 C 24,1 km/h (4 Bft) 97 %
27.07.2017 13:00 17,9 C 17,7 C 17,9 C 90 % 1009,3 hPa 0,0 l/m 6,4 km/h (2 Bft) SW 225 10 min 0,152 mm 287 W/m 16,2 C 17,9 C 14,5 km/h (3 Bft) 98 %
27.07.2017 13:10 18,0 C 17,9 C 18,0 C 90 % 1009,4 hPa 0,0 l/m 4,8 km/h (1 Bft) W-SW 247 10 min 0,000 mm 302 W/m 16,3 C 18,0 C 11,3 km/h (2 Bft) 97 %
27.07.2017 13:20 18,6 C 18,0 C 18,6 C 90 % 1009,3 hPa 0,0 l/m 8,0 km/h (2 Bft) SW 225 10 min 0,000 mm 1071 W/m 16,9 C 17,9 C 19,3 km/h (3 Bft) 98 %
27.07.2017 13:30 19,0 C 18,6 C 19,0 C 90 % 1009,2 hPa 0,0 l/m 9,7 km/h (2 Bft) SW 225 10 min 0,000 mm 942 W/m 17,3 C 17,6 C 20,9 km/h (4 Bft) 97 %
27.07.2017 13:40 18,7 C 18,7 C 19,2 C 89 % 1009,4 hPa 0,0 l/m 9,7 km/h (2 Bft) SW 225 10 min 0,000 mm 250 W/m 16,8 C 17,3 C 20,9 km/h (4 Bft) 98 %
27.07.2017 13:50 18,3 C 18,3 C 18,7 C 89 % 1009,1 hPa 0,0 l/m 11,3 km/h (2 Bft) W-SW 247 10 min 0,000 mm 250 W/m 16,5 C 16,3 C 29,0 km/h (5 Bft) 98 %
27.07.2017 14:00 18,7 C 18,3 C 18,7 C 89 % 1009,1 hPa 0,0 l/m 8,0 km/h (2 Bft) SW 225 10 min 0,229 mm 352 W/m 16,8 C 18,0 C 20,9 km/h (4 Bft) 98 %
27.07.2017 14:10 18,7 C 18,7 C 18,8 C 87 % 1009,2 hPa 0,0 l/m 9,7 km/h (2 Bft) W-SW 247 10 min 0,000 mm 260 W/m 16,5 C 17,3 C 20,9 km/h (4 Bft) 98 %
27.07.2017 14:20 18,9 C 18,7 C 18,9 C 88 % 1009,2 hPa 0,0 l/m 3,2 km/h (1 Bft) W-SW 247 10 min 0,000 mm 257 W/m 16,9 C 18,9 C 14,5 km/h (3 Bft) 97 %
27.07.2017 14:30 19,4 C 18,9 C 19,4 C 88 % 1009,1 hPa 0,0 l/m 1,6 km/h (1 Bft) W 270 10 min 0,000 mm 893 W/m 17,4 C 19,4 C 9,7 km/h (2 Bft) 98 %
27.07.2017 14:40 20,0 C 19,4 C 20,0 C 87 % 1009,0 hPa 0,0 l/m 4,8 km/h (1 Bft) SW 225 10 min 0,000 mm 494 W/m 17,8 C 20,0 C 16,1 km/h (3 Bft) 97 %
27.07.2017 14:50 19,9 C 19,9 C 20,1 C 84 % 1009,0 hPa 0,0 l/m 12,9 km/h (3 Bft) S-SW 202 10 min 0,000 mm 341 W/m 17,1 C 17,7 C 33,8 km/h (5 Bft) 98 %
27.07.2017 15:00 19,7 C 19,6 C 19,9 C 83 % 1009,0 hPa 0,0 l/m 11,3 km/h (2 Bft) SW 225 10 min 0,178 mm 211 W/m 16,7 C 17,9 C 27,4 km/h (4 Bft) 97 %
27.07.2017 15:10 19,4 C 19,4 C 19,6 C 85 % 1009,0 hPa 0,0 l/m 9,7 km/h (2 Bft) SW 225 10 min 0,000 mm 285 W/m 16,8 C 18,1 C 22,5 km/h (4 Bft) 97 %
27.07.2017 15:20 19,2 C 19,2 C 19,4 C 86 % 1008,9 hPa 0,0 l/m 6,4 km/h (2 Bft) S-SW 202 10 min 0,000 mm 323 W/m 16,8 C 19,2 C 22,5 km/h (4 Bft) 97 %
27.07.2017 15:30 19,2 C 19,1 C 19,2 C 87 % 1008,9 hPa 0,0 l/m 1,6 km/h (1 Bft) S-SW 202 10 min 0,000 mm 422 W/m 17,0 C 19,2 C 11,3 km/h (2 Bft) 97 %
27.07.2017 15:40 19,7 C 19,2 C 19,7 C 87 % 1008,9 hPa 0,0 l/m 1,6 km/h (1 Bft) SW 225 10 min 0,000 mm 517 W/m 17,5 C 19,7 C 16,1 km/h (3 Bft) 98 %
27.07.2017 15:50 20,1 C 19,7 C 20,1 C 85 % 1008,7 hPa 0,0 l/m 6,4 km/h (2 Bft) S-SW 202 10 min 0,000 mm 376 W/m 17,5 C 20,1 C 19,3 km/h (3 Bft) 97 %
27.07.2017 16:00 20,5 C 20,0 C 20,5 C 83 % 1008,6 hPa 0,0 l/m 9,7 km/h (2 Bft) S-SW 202 10 min 0,203 mm 469 W/m 17,5 C 19,3 C 25,7 km/h (4 Bft) 98 %
27.07.2017 16:10 20,7 C 20,4 C 20,7 C 83 % 1008,4 hPa 0,0 l/m 9,7 km/h (2 Bft) S-SW 202 10 min 0,000 mm 376 W/m 17,7 C 19,5 C 24,1 km/h (4 Bft) 96 %
27.07.2017 16:20 20,9 C 20,7 C 20,9 C 82 % 1008,4 hPa 0,0 l/m 8,0 km/h (2 Bft) SW 225 10 min 0,000 mm 461 W/m 17,7 C 20,3 C 22,5 km/h (4 Bft) 98 %
27.07.2017 16:30 21,5 C 20,9 C 21,5 C 83 % 1008,3 hPa 0,0 l/m 6,4 km/h (2 Bft) W-SW 247 10 min 0,000 mm 916 W/m 18,5 C 21,5 C 20,9 km/h (4 Bft) 98 %
27.07.2017 16:40 21,4 C 21,4 C 21,6 C 79 % 1008,3 hPa 0,0 l/m 9,7 km/h (2 Bft) SW 225 10 min 0,000 mm 327 W/m 17,6 C 20,3 C 25,7 km/h (4 Bft) 97 %
27.07.2017 16:50 21,4 C 21,4 C 21,4 C 79 % 1008,5 hPa 0,0 l/m 4,8 km/h (1 Bft) SW 225 10 min 0,000 mm 332 W/m 17,6 C 21,4 C 19,3 km/h (3 Bft) 98 %
27.07.2017 17:00 21,3 C 21,3 C 21,4 C 80 % 1008,4 hPa 0,0 l/m 1,6 km/h (1 Bft) W-SW 247 10 min 0,229 mm 272 W/m 17,7 C 21,3 C 14,5 km/h (3 Bft) 97 %
27.07.2017 17:10 21,2 C 21,2 C 21,3 C 79 % 1008,4 hPa 0,0 l/m 9,7 km/h (2 Bft) S-SW 202 10 min 0,000 mm 276 W/m 17,4 C 20,1 C 27,4 km/h (4 Bft) 97 %
27.07.2017 17:20 21,2 C 21,2 C 21,2 C 79 % 1008,4 hPa 0,0 l/m 9,7 km/h (2 Bft) SW 225 10 min 0,000 mm 276 W/m 17,4 C 20,1 C 20,9 km/h (4 Bft) 98 %
27.07.2017 17:30 21,2 C 21,2 C 21,2 C 79 % 1008,2 hPa 0,0 l/m 8,0 km/h (2 Bft) W 270 10 min 0,000 mm 230 W/m 17,4 C 20,6 C 19,3 km/h (3 Bft) 97 %
27.07.2017 17:40 21,1 C 21,1 C 21,2 C 79 % 1008,2 hPa 0,0 l/m 6,4 km/h (2 Bft) SW 225 10 min 0,000 mm 193 W/m 17,3 C 21,1 C 19,3 km/h (3 Bft) 98 %
27.07.2017 17:50 21,1 C 21,0 C 21,1 C 80 % 1008,1 hPa 0,0 l/m 3,2 km/h (1 Bft) W-SW 247 10 min 0,000 mm 193 W/m 17,5 C 21,1 C 19,3 km/h (3 Bft) 97 %
27.07.2017 18:00 20,8 C 20,8 C 21,1 C 79 % 1008,2 hPa 0,0 l/m 9,7 km/h (2 Bft) S-SW 202 10 min 0,152 mm 174 W/m 17,0 C 19,6 C 25,7 km/h (4 Bft) 98 %
27.07.2017 18:20 20,4 C 20,4 C 21,1 C 79 % 1007,8 hPa 0,0 l/m 7,0 km/h (2 Bft) S-SW 204 0 min 0,000 mm 107 W/m 16,6 C 20,2 C 29,0 km/h (5 Bft) 100 %
27.07.2017 18:30 20,3 C 20,3 C 20,4 C 80 % 1007,8 hPa 0,0 l/m 4,6 km/h (1 Bft) S-SW 198 0 min 0,000 mm 79 W/m 16,7 C 20,3 C 16,1 km/h (3 Bft) 100 %
27.07.2017 18:40 20,1 C 20,1 C 20,3 C 81 % 1007,8 hPa 0,0 l/m 3,7 km/h (1 Bft) S-SW 205 0 min 0,000 mm 60 W/m 16,7 C 20,1 C 14,5 km/h (3 Bft) 100 %
27.07.2017 18:50 20,0 C 19,9 C 20,1 C 81 % 1007,8 hPa 0,0 l/m 8,8 km/h (2 Bft) S-SW 202 0 min 0,000 mm 70 W/m 16,6 C 19,1 C 16,1 km/h (3 Bft) 100 %
27.07.2017 19:00 19,8 C 19,8 C 20,0 C 83 % 1007,6 hPa 0,0 l/m 1,6 km/h (1 Bft) S-SW 193 0 min 0,000 mm 53 W/m 16,8 C 19,8 C 9,7 km/h (2 Bft) 100 %
27.07.2017 19:10 19,6 C 19,6 C 19,8 C 83 % 1007,7 hPa 0,0 l/m 4,4 km/h (1 Bft) S-SW 212 0 min 0,076 mm 51 W/m 16,6 C 19,6 C 16,1 km/h (3 Bft) 100 %
27.07.2017 19:20 19,5 C 19,5 C 19,6 C 82 % 1007,8 hPa 0,0 l/m 6,1 km/h (2 Bft) SW 231 0 min 0,001 mm 46 W/m 16,3 C 19,5 C 19,3 km/h (3 Bft) 100 %
27.07.2017 19:30 19,4 C 19,4 C 19,5 C 82 % 1007,8 hPa 0,0 l/m 2,0 km/h (1 Bft) W-SW 253 0 min 0,000 mm 33 W/m 16,2 C 19,4 C 11,3 km/h (2 Bft) 99 %
27.07.2017 19:40 19,3 C 19,3 C 19,4 C 82 % 1007,9 hPa 0,0 l/m 0,1 km/h (0 Bft) W-SW 249 0 min 0,000 mm 30 W/m 16,1 C 19,3 C 4,8 km/h (1 Bft) 100 %
27.07.2017 19:50 19,2 C 19,2 C 19,3 C 82 % 1007,8 hPa 0,0 l/m 1,0 km/h (0 Bft) SW 228 0 min 0,000 mm 25 W/m 16,0 C 19,2 C 6,4 km/h (2 Bft) 99 %
27.07.2017 20:00 19,1 C 19,1 C 19,2 C 82 % 1007,7 hPa 0,0 l/m 0,5 km/h (0 Bft) SW 228 0 min 0,000 mm 16 W/m 16,0 C 19,1 C 4,8 km/h (1 Bft) 100 %
27.07.2017 20:10 18,9 C 18,9 C 19,1 C 83 % 1007,9 hPa 0,0 l/m 0,0 km/h (0 Bft) SW 228 0 min 0,025 mm 16 W/m 15,9 C 18,9 C 0,0 km/h (0 Bft) 100 %
27.07.2017 20:20 18,8 C 18,8 C 18,9 C 84 % 1007,9 hPa 0,0 l/m 0,0 km/h (0 Bft) SW 228 0 min 0,000 mm 18 W/m 16,0 C 18,8 C 0,0 km/h (0 Bft) 100 %
27.07.2017 20:30 18,6 C 18,6 C 18,8 C 84 % 1007,9 hPa 0,0 l/m 0,0 km/h (0 Bft) SW 228 0 min 0,000 mm 7 W/m 15,8 C 18,6 C 1,6 km/h (1 Bft) 100 %
27.07.2017 20:40 18,5 C 18,5 C 18,6 C 85 % 1008,0 hPa 0,0 l/m 0,0 km/h (0 Bft) SW 228 0 min 0,000 mm 0 W/m 15,9 C 18,5 C 0,0 km/h (0 Bft) 100 %
27.07.2017 20:50 18,5 C 18,5 C 18,5 C 86 % 1008,0 hPa 0,2 l/m 0,0 km/h (0 Bft) SW 228 0 min 0,000 mm 0 W/m 16,1 C 18,5 C 0,0 km/h (0 Bft) 100 %
27.07.2017 21:00 18,4 C 18,4 C 18,5 C 87 % 1008,1 hPa 0,2 l/m 0,0 km/h (0 Bft) SW 228 0 min 0,000 mm 0 W/m 16,2 C 18,4 C 0,0 km/h (0 Bft) 100 %
27.07.2017 21:10 18,2 C 18,2 C 18,4 C 88 % 1008,2 hPa 0,0 l/m 0,0 km/h (0 Bft) N 0 0 min 0,000 mm 0 W/m 16,2 C 18,2 C 0,0 km/h (0 Bft) 98 %
27.07.2017 21:20 18,1 C 18,1 C 18,2 C 88 % 1008,5 hPa 0,4 l/m 1,6 km/h (1 Bft) SW 225 0 min 0,000 mm 0 W/m 16,1 C 18,1 C 17,7 km/h (3 Bft) 98 %
27.07.2017 21:30 17,8 C 17,8 C 18,1 C 88 % 1008,4 hPa 0,2 l/m 4,8 km/h (1 Bft) W-SW 247 0 min 0,000 mm 0 W/m 15,8 C 17,8 C 16,1 km/h (3 Bft) 97 %
27.07.2017 21:40 17,6 C 17,6 C 17,8 C 88 % 1008,4 hPa 0,0 l/m 1,6 km/h (1 Bft) W-SW 247 0 min 0,000 mm 0 W/m 15,6 C 17,6 C 11,3 km/h (2 Bft) 98 %
27.07.2017 21:50 17,4 C 17,4 C 17,6 C 88 % 1008,2 hPa 0,0 l/m 0,0 km/h (0 Bft) N 0 0 min 0,000 mm 0 W/m 15,4 C 17,4 C 0,0 km/h (0 Bft) 98 %
27.07.2017 22:00 17,3 C 17,3 C 17,4 C 88 % 1008,3 hPa 0,0 l/m 0,0 km/h (0 Bft) N 0 0 min 0,000 mm 0 W/m 15,3 C 17,3 C 0,0 km/h (0 Bft) 98 %
27.07.2017 22:10 17,3 C 17,3 C 17,3 C 88 % 1008,2 hPa 0,0 l/m 0,0 km/h (0 Bft) N 0 0 min 0,000 mm 0 W/m 15,3 C 17,3 C 0,0 km/h (0 Bft) 97 %
27.07.2017 22:20 17,1 C 17,1 C 17,3 C 88 % 1008,3 hPa 0,4 l/m 0,0 km/h (0 Bft) N 0 0 min 0,000 mm 0 W/m 15,1 C 17,1 C 0,0 km/h (0 Bft) 98 %
27.07.2017 22:30 17,1 C 17,1 C 17,1 C 88 % 1008,3 hPa 0,2 l/m 0,0 km/h (0 Bft) N 0 0 min 0,000 mm 0 W/m 15,1 C 17,1 C 0,0 km/h (0 Bft) 97 %
27.07.2017 22:40 16,9 C 16,9 C 17,1 C 88 % 1008,4 hPa 0,0 l/m 0,0 km/h (0 Bft) W-SW 247 0 min 0,000 mm 0 W/m 14,9 C 16,9 C 6,4 km/h (2 Bft) 97 %
27.07.2017 22:50 16,9 C 16,9 C 16,9 C 88 % 1008,5 hPa 0,2 l/m 1,6 km/h (1 Bft) S-SO 157 0 min 0,000 mm 0 W/m 14,9 C 16,9 C 8,0 km/h (2 Bft) 98 %
27.07.2017 23:00 16,8 C 16,8 C 16,9 C 89 % 1008,5 hPa 0,2 l/m 0,0 km/h (0 Bft) N 0 0 min 0,000 mm 0 W/m 15,0 C 16,8 C 0,0 km/h (0 Bft) 98 %
27.07.2017 23:10 16,8 C 16,8 C 16,8 C 89 % 1008,4 hPa 0,0 l/m 1,6 km/h (1 Bft) S 180 0 min 0,000 mm 0 W/m 15,0 C 16,8 C 9,7 km/h (2 Bft) 97 %
27.07.2017 23:20 16,7 C 16,7 C 16,8 C 89 % 1007,7 hPa 0,4 l/m 3,2 km/h (1 Bft) SO 135 0 min 0,000 mm 0 W/m 14,9 C 16,7 C 11,3 km/h (2 Bft) 98 %
27.07.2017 23:30 16,7 C 16,7 C 16,7 C 89 % 1007,9 hPa 0,0 l/m 0,0 km/h (0 Bft) N 0 0 min 0,000 mm 0 W/m 14,9 C 16,7 C 0,0 km/h (0 Bft) 97 %
27.07.2017 23:40 16,5 C 16,5 C 16,7 C 89 % 1008,0 hPa 0,0 l/m 0,0 km/h (0 Bft) N 0 0 min 0,000 mm 0 W/m 14,7 C 16,5 C 0,0 km/h (0 Bft) 98 %
27.07.2017 23:50 16,4 C 16,4 C 16,5 C 89 % 1008,3 hPa 0,0 l/m 0,0 km/h (0 Bft) S-SW 202 0 min 0,000 mm 0 W/m 14,6 C 16,4 C 8,0 km/h (2 Bft) 97 %
_ Min-Zeit 03:10 03:10 03:20 16:40 19:00 - 00:00 - - - - - 03:10 03:10 00:00 05:50
Minimum _ 11,7 C 11,7 C 11,7 C 79 % 1007,6 hPa - 0,0 km/h (0 Bft) - - - - - 9,9 C 11,7 C 0,0 km/h (0 Bft) 90 %
_ Max-Zeit 16:40 16:40 16:40 08:00 00:20 08:00 14:50 - - 10:50 14:00 13:20 16:30 16:30 14:50 00:00
Maximum _ 21,6 C 21,4 C 21,6 C 90 % 1010,6 hPa 0,6 l/m 12,9 km/h
S-SW (3 Bft)
- - 10 min 0,229 mm 1071 W/m 18,5 C 21,5 C 33,8 km/h
S (5 Bft)
100 %
Durchschnitt _ 16,2 C 16,2 C 16,3 C 87 % 1009,2 hPa #7,2 l/m 3,9 km/h (1 Bft) S-SO - #7:00 h #1,524 mm 203 W/m 14,1 C 16,1 C 10,1 km/h (2 Bft) 99 %
PRIVATE WETTERSTATION BILLIGHEIM-ALLFELD - www.neckar-odenwald-wetter.de - Holger Sonntag